Dati Storici

Data ora Umidita' aria (%) Temperatura aria (°C) Rad globale (W/m²) Gonioanemometro (°) Tacoanemometro (m/s) Pioggia (mm)
10-11-2012 19:50 84.8 % 11.206 5.024 40.525 3.164 0
10-11-2012 19:40 85.4 % 11.188 5.101 40.814 3.283 0
10-11-2012 19:30 85.9 % 11.195 4.986 43.695 1.478 0
10-11-2012 19:20 86.1 % 11.185 5.062 25.828 2.098 0
10-11-2012 19:10 86.3 % 11.172 4.934 16.101 1.961 0
10-11-2012 19:00 86.2 % 11.233 4.986 48.632 3.064 0
10-11-2012 18:50 86.2 % 11.299 4.921 19.023 1.845 0
10-11-2012 18:40 86.3 % 11.325 4.96 13.282 2.774 0
10-11-2012 18:30 86.2 % 11.338 4.947 31.447 2.165 0
10-11-2012 18:20 85.7 % 11.359 4.717 2.869 1.309 0
10-11-2012 18:10 84.9 % 11.443 4.973 25.641 3.156 0
10-11-2012 18:00 84.2 % 11.568 5.113 52.01 2.206 0
10-11-2012 17:50 83.8 % 11.671 5.433 27.199 2.207 0
10-11-2012 17:40 83.6 % 11.74 6.355 26.786 3.018 0
10-11-2012 17:30 83.4 % 11.781 9.91 51.464 2.433 0
10-11-2012 17:20 83.3 % 11.797 11.851 19.035 2.277 0
10-11-2012 17:10 83 % 11.803 14.205 353.574 1.575 0
10-11-2012 17:00 82.8 % 11.873 18.954 9.104 2.45 0
10-11-2012 16:50 82.3 % 11.936 12.732 19.011 2.611 0
10-11-2012 16:40 81.8 % 11.997 19.759 35.063 2.948 0

I dati sono presentati in modo automatico a scopo informativo. In seguito a verifica i dati possono subire modifiche o essere invalidati e non riportati negli archivi definitivi.